sensor_id;sensor_type;location;lat;lon;timestamp;P1;durP1;ratioP1;P2;durP2;ratioP2
31994;SDS011;51311;50.870;7.048;2022-07-26T00:02:41;0.50;;;0.30;;
31994;SDS011;51311;50.870;7.048;2022-07-26T00:06:41;0.30;;;0.20;;
31994;SDS011;51311;50.870;7.048;2022-07-26T00:10:43;0.60;;;0.30;;
31994;SDS011;51311;50.870;7.048;2022-07-26T00:14:42;0.50;;;0.30;;
31994;SDS011;51311;50.870;7.048;2022-07-26T00:18:42;0.70;;;0.20;;
31994;SDS011;51311;50.870;7.048;2022-07-26T00:22:42;0.40;;;0.20;;
31994;SDS011;51311;50.870;7.048;2022-07-26T00:26:42;0.30;;;0.20;;
31994;SDS011;51311;50.870;7.048;2022-07-26T00:30:42;0.30;;;0.20;;
31994;SDS011;51311;50.870;7.048;2022-07-26T00:34:42;0.30;;;0.20;;
31994;SDS011;51311;50.870;7.048;2022-07-26T00:38:42;0.30;;;0.20;;
31994;SDS011;51311;50.870;7.048;2022-07-26T00:42:43;0.20;;;0.10;;
31994;SDS011;51311;50.870;7.048;2022-07-26T00:46:43;0.40;;;0.20;;
31994;SDS011;51311;50.870;7.048;2022-07-26T00:50:43;0.20;;;0.20;;
31994;SDS011;51311;50.870;7.048;2022-07-26T00:54:44;0.40;;;0.10;;
31994;SDS011;51311;50.870;7.048;2022-07-26T00:58:43;0.90;;;0.20;;
31994;SDS011;51311;50.870;7.048;2022-07-26T01:02:44;0.50;;;0.30;;
31994;SDS011;51311;50.870;7.048;2022-07-26T01:06:44;0.50;;;0.30;;
31994;SDS011;51311;50.870;7.048;2022-07-26T01:10:44;0.30;;;0.20;;
31994;SDS011;51311;50.870;7.048;2022-07-26T01:14:44;0.40;;;0.20;;
31994;SDS011;51311;50.870;7.048;2022-07-26T01:18:44;0.20;;;0.10;;
31994;SDS011;51311;50.870;7.048;2022-07-26T01:22:44;0.20;;;0.10;;
31994;SDS011;51311;50.870;7.048;2022-07-26T01:26:44;0.50;;;0.10;;
31994;SDS011;51311;50.870;7.048;2022-07-26T01:30:45;0.10;;;0.10;;
31994;SDS011;51311;50.870;7.048;2022-07-26T01:34:45;0.20;;;0.10;;
31994;SDS011;51311;50.870;7.048;2022-07-26T01:38:45;0.50;;;0.10;;
31994;SDS011;51311;50.870;7.048;2022-07-26T01:42:45;0.10;;;0.10;;
31994;SDS011;51311;50.870;7.048;2022-07-26T01:46:45;0.20;;;0.10;;
31994;SDS011;51311;50.870;7.048;2022-07-26T01:50:46;0.40;;;0.20;;
31994;SDS011;51311;50.870;7.048;2022-07-26T01:54:46;0.20;;;0.10;;
31994;SDS011;51311;50.870;7.048;2022-07-26T01:58:46;0.40;;;0.20;;
31994;SDS011;51311;50.870;7.048;2022-07-26T02:02:46;0.20;;;0.10;;
31994;SDS011;51311;50.870;7.048;2022-07-26T02:06:46;0.40;;;0.30;;
31994;SDS011;51311;50.870;7.048;2022-07-26T02:10:46;1.00;;;0.30;;
31994;SDS011;51311;50.870;7.048;2022-07-26T02:14:46;0.40;;;0.10;;
31994;SDS011;51311;50.870;7.048;2022-07-26T02:18:47;0.10;;;0.10;;
31994;SDS011;51311;50.870;7.048;2022-07-26T02:22:47;0.30;;;0.20;;
31994;SDS011;51311;50.870;7.048;2022-07-26T02:26:47;0.30;;;0.20;;
31994;SDS011;51311;50.870;7.048;2022-07-26T02:30:47;0.20;;;0.20;;
31994;SDS011;51311;50.870;7.048;2022-07-26T02:38:47;0.20;;;0.10;;
31994;SDS011;51311;50.870;7.048;2022-07-26T02:42:48;0.30;;;0.10;;
31994;SDS011;51311;50.870;7.048;2022-07-26T02:46:48;0.30;;;0.10;;
31994;SDS011;51311;50.870;7.048;2022-07-26T02:50:48;0.20;;;0.10;;
31994;SDS011;51311;50.870;7.048;2022-07-26T02:54:48;0.30;;;0.20;;
31994;SDS011;51311;50.870;7.048;2022-07-26T02:58:48;0.20;;;0.10;;
31994;SDS011;51311;50.870;7.048;2022-07-26T03:02:49;0.30;;;0.20;;
31994;SDS011;51311;50.870;7.048;2022-07-26T03:06:49;0.50;;;0.20;;
31994;SDS011;51311;50.870;7.048;2022-07-26T03:10:49;0.20;;;0.20;;
31994;SDS011;51311;50.870;7.048;2022-07-26T03:14:49;0.30;;;0.20;;
31994;SDS011;51311;50.870;7.048;2022-07-26T03:18:49;0.20;;;0.10;;
31994;SDS011;51311;50.870;7.048;2022-07-26T03:22:49;0.40;;;0.10;;
31994;SDS011;51311;50.870;7.048;2022-07-26T03:26:49;0.10;;;0.00;;
31994;SDS011;51311;50.870;7.048;2022-07-26T03:34:50;0.20;;;0.10;;
31994;SDS011;51311;50.870;7.048;2022-07-26T03:38:50;0.50;;;0.10;;
31994;SDS011;51311;50.870;7.048;2022-07-26T03:42:50;0.40;;;0.10;;
31994;SDS011;51311;50.870;7.048;2022-07-26T03:46:50;0.10;;;0.10;;
31994;SDS011;51311;50.870;7.048;2022-07-26T03:50:50;0.10;;;0.00;;
31994;SDS011;51311;50.870;7.048;2022-07-26T03:54:51;0.10;;;0.10;;
31994;SDS011;51311;50.870;7.048;2022-07-26T03:58:51;0.40;;;0.20;;
31994;SDS011;51311;50.870;7.048;2022-07-26T04:02:51;0.20;;;0.10;;
31994;SDS011;51311;50.870;7.048;2022-07-26T04:06:51;0.20;;;0.10;;
31994;SDS011;51311;50.870;7.048;2022-07-26T04:10:51;0.60;;;0.10;;
31994;SDS011;51311;50.870;7.048;2022-07-26T04:14:51;0.30;;;0.10;;
31994;SDS011;51311;50.870;7.048;2022-07-26T04:18:52;0.20;;;0.10;;
31994;SDS011;51311;50.870;7.048;2022-07-26T04:22:52;0.30;;;0.20;;
31994;SDS011;51311;50.870;7.048;2022-07-26T04:26:52;0.20;;;0.20;;
31994;SDS011;51311;50.870;7.048;2022-07-26T04:30:52;0.20;;;0.10;;
31994;SDS011;51311;50.870;7.048;2022-07-26T04:34:52;0.10;;;0.10;;
31994;SDS011;51311;50.870;7.048;2022-07-26T04:38:52;0.30;;;0.10;;
31994;SDS011;51311;50.870;7.048;2022-07-26T04:42:53;0.40;;;0.10;;
31994;SDS011;51311;50.870;7.048;2022-07-26T04:46:53;0.20;;;0.10;;
31994;SDS011;51311;50.870;7.048;2022-07-26T04:50:53;0.80;;;0.20;;
31994;SDS011;51311;50.870;7.048;2022-07-26T04:54:53;0.40;;;0.20;;
31994;SDS011;51311;50.870;7.048;2022-07-26T04:58:53;0.10;;;0.10;;
31994;SDS011;51311;50.870;7.048;2022-07-26T05:02:54;0.40;;;0.10;;
31994;SDS011;51311;50.870;7.048;2022-07-26T05:06:54;0.20;;;0.10;;
31994;SDS011;51311;50.870;7.048;2022-07-26T05:10:54;1.20;;;0.20;;
31994;SDS011;51311;50.870;7.048;2022-07-26T05:14:54;0.20;;;0.10;;
31994;SDS011;51311;50.870;7.048;2022-07-26T05:18:54;0.40;;;0.10;;
31994;SDS011;51311;50.870;7.048;2022-07-26T05:26:54;0.20;;;0.10;;
31994;SDS011;51311;50.870;7.048;2022-07-26T05:30:55;0.30;;;0.10;;
31994;SDS011;51311;50.870;7.048;2022-07-26T05:34:55;0.10;;;0.10;;
31994;SDS011;51311;50.870;7.048;2022-07-26T05:38:55;0.10;;;0.10;;
31994;SDS011;51311;50.870;7.048;2022-07-26T05:42:55;0.30;;;0.10;;
31994;SDS011;51311;50.870;7.048;2022-07-26T05:46:55;0.20;;;0.10;;
31994;SDS011;51311;50.870;7.048;2022-07-26T05:50:55;0.20;;;0.10;;
31994;SDS011;51311;50.870;7.048;2022-07-26T05:54:56;0.20;;;0.10;;
31994;SDS011;51311;50.870;7.048;2022-07-26T05:58:56;0.10;;;0.10;;
31994;SDS011;51311;50.870;7.048;2022-07-26T06:02:56;0.10;;;0.10;;
31994;SDS011;51311;50.870;7.048;2022-07-26T06:06:56;0.10;;;0.10;;
31994;SDS011;51311;50.870;7.048;2022-07-26T06:10:56;0.30;;;0.20;;
31994;SDS011;51311;50.870;7.048;2022-07-26T06:14:56;1.20;;;0.20;;
31994;SDS011;51311;50.870;7.048;2022-07-26T06:18:57;0.10;;;0.10;;
31994;SDS011;51311;50.870;7.048;2022-07-26T06:22:57;0.20;;;0.10;;
31994;SDS011;51311;50.870;7.048;2022-07-26T06:26:57;0.20;;;0.20;;
31994;SDS011;51311;50.870;7.048;2022-07-26T06:30:57;0.20;;;0.10;;
31994;SDS011;51311;50.870;7.048;2022-07-26T06:34:57;0.30;;;0.20;;
31994;SDS011;51311;50.870;7.048;2022-07-26T06:38:57;0.20;;;0.20;;
31994;SDS011;51311;50.870;7.048;2022-07-26T06:42:58;0.30;;;0.10;;
31994;SDS011;51311;50.870;7.048;2022-07-26T06:46:58;0.40;;;0.20;;
31994;SDS011;51311;50.870;7.048;2022-07-26T06:50:58;0.20;;;0.10;;
31994;SDS011;51311;50.870;7.048;2022-07-26T06:54:58;0.30;;;0.10;;
31994;SDS011;51311;50.870;7.048;2022-07-26T06:58:58;0.70;;;0.30;;
31994;SDS011;51311;50.870;7.048;2022-07-26T07:02:58;0.70;;;0.20;;
31994;SDS011;51311;50.870;7.048;2022-07-26T07:06:59;0.90;;;0.20;;
31994;SDS011;51311;50.870;7.048;2022-07-26T07:10:59;0.90;;;0.30;;
31994;SDS011;51311;50.870;7.048;2022-07-26T07:14:59;0.10;;;0.10;;
31994;SDS011;51311;50.870;7.048;2022-07-26T07:18:59;0.60;;;0.20;;
31994;SDS011;51311;50.870;7.048;2022-07-26T07:22:59;0.70;;;0.20;;
31994;SDS011;51311;50.870;7.048;2022-07-26T07:26:59;0.20;;;0.20;;
31994;SDS011;51311;50.870;7.048;2022-07-26T07:30:59;0.20;;;0.20;;
31994;SDS011;51311;50.870;7.048;2022-07-26T07:35:00;0.20;;;0.20;;
31994;SDS011;51311;50.870;7.048;2022-07-26T07:39:00;0.50;;;0.30;;
31994;SDS011;51311;50.870;7.048;2022-07-26T07:43:00;0.40;;;0.20;;
31994;SDS011;51311;50.870;7.048;2022-07-26T07:47:00;0.10;;;0.10;;
31994;SDS011;51311;50.870;7.048;2022-07-26T07:51:00;0.30;;;0.20;;
31994;SDS011;51311;50.870;7.048;2022-07-26T07:55:00;0.40;;;0.30;;
31994;SDS011;51311;50.870;7.048;2022-07-26T07:59:01;0.20;;;0.20;;
31994;SDS011;51311;50.870;7.048;2022-07-26T08:03:01;0.40;;;0.20;;
31994;SDS011;51311;50.870;7.048;2022-07-26T08:07:01;0.70;;;0.40;;
31994;SDS011;51311;50.870;7.048;2022-07-26T08:11:01;0.50;;;0.20;;
31994;SDS011;51311;50.870;7.048;2022-07-26T08:15:02;0.20;;;0.10;;
31994;SDS011;51311;50.870;7.048;2022-07-26T08:19:02;0.20;;;0.20;;
31994;SDS011;51311;50.870;7.048;2022-07-26T08:23:02;0.10;;;0.10;;
31994;SDS011;51311;50.870;7.048;2022-07-26T08:27:02;0.20;;;0.20;;
31994;SDS011;51311;50.870;7.048;2022-07-26T08:31:02;0.60;;;0.30;;
31994;SDS011;51311;50.870;7.048;2022-07-26T08:35:02;0.50;;;0.30;;
31994;SDS011;51311;50.870;7.048;2022-07-26T08:39:02;0.40;;;0.30;;
31994;SDS011;51311;50.870;7.048;2022-07-26T08:43:02;0.70;;;0.30;;
31994;SDS011;51311;50.870;7.048;2022-07-26T08:47:03;0.70;;;0.40;;
31994;SDS011;51311;50.870;7.048;2022-07-26T08:51:06;0.40;;;0.20;;
31994;SDS011;51311;50.870;7.048;2022-07-26T08:55:03;0.80;;;0.30;;
31994;SDS011;51311;50.870;7.048;2022-07-26T08:59:04;0.60;;;0.30;;
31994;SDS011;51311;50.870;7.048;2022-07-26T09:03:03;0.30;;;0.20;;
31994;SDS011;51311;50.870;7.048;2022-07-26T09:07:05;0.50;;;0.20;;
31994;SDS011;51311;50.870;7.048;2022-07-26T09:11:23;0.60;;;0.40;;
31994;SDS011;51311;50.870;7.048;2022-07-26T09:15:04;0.70;;;0.30;;
31994;SDS011;51311;50.870;7.048;2022-07-26T09:19:13;0.60;;;0.30;;
31994;SDS011;51311;50.870;7.048;2022-07-26T09:23:05;0.50;;;0.30;;
31994;SDS011;51311;50.870;7.048;2022-07-26T09:27:05;0.50;;;0.30;;
31994;SDS011;51311;50.870;7.048;2022-07-26T09:31:04;0.30;;;0.30;;
31994;SDS011;51311;50.870;7.048;2022-07-26T09:35:10;0.70;;;0.30;;
31994;SDS011;51311;50.870;7.048;2022-07-26T09:39:05;0.90;;;0.30;;
31994;SDS011;51311;50.870;7.048;2022-07-26T09:43:05;0.60;;;0.40;;
31994;SDS011;51311;50.870;7.048;2022-07-26T09:47:05;1.80;;;0.50;;
31994;SDS011;51311;50.870;7.048;2022-07-26T09:51:05;0.60;;;0.40;;
31994;SDS011;51311;50.870;7.048;2022-07-26T09:55:06;3.40;;;0.90;;
31994;SDS011;51311;50.870;7.048;2022-07-26T09:59:05;0.90;;;0.50;;
31994;SDS011;51311;50.870;7.048;2022-07-26T10:03:06;1.30;;;0.70;;
31994;SDS011;51311;50.870;7.048;2022-07-26T10:07:06;1.80;;;0.50;;
31994;SDS011;51311;50.870;7.048;2022-07-26T10:11:07;1.70;;;0.70;;
31994;SDS011;51311;50.870;7.048;2022-07-26T10:15:06;2.10;;;0.70;;
31994;SDS011;51311;50.870;7.048;2022-07-26T10:19:06;0.50;;;0.40;;
31994;SDS011;51311;50.870;7.048;2022-07-26T10:27:19;7.50;;;0.70;;
31994;SDS011;51311;50.870;7.048;2022-07-26T10:35:28;2.50;;;1.20;;
31994;SDS011;51311;50.870;7.048;2022-07-26T10:39:11;2.30;;;1.30;;
31994;SDS011;51311;50.870;7.048;2022-07-26T10:43:10;2.60;;;1.40;;
31994;SDS011;51311;50.870;7.048;2022-07-26T10:47:10;3.10;;;1.60;;
31994;SDS011;51311;50.870;7.048;2022-07-26T10:51:22;1.80;;;1.20;;
31994;SDS011;51311;50.870;7.048;2022-07-26T10:55:09;4.10;;;1.30;;
31994;SDS011;51311;50.870;7.048;2022-07-26T10:59:09;2.10;;;1.10;;
31994;SDS011;51311;50.870;7.048;2022-07-26T11:03:10;2.10;;;1.10;;
31994;SDS011;51311;50.870;7.048;2022-07-26T11:11:10;4.80;;;1.40;;
31994;SDS011;51311;50.870;7.048;2022-07-26T11:19:15;1.80;;;1.20;;
31994;SDS011;51311;50.870;7.048;2022-07-26T11:23:24;2.80;;;1.60;;
31994;SDS011;51311;50.870;7.048;2022-07-26T11:27:11;2.40;;;1.40;;
31994;SDS011;51311;50.870;7.048;2022-07-26T11:31:11;2.70;;;1.30;;
31994;SDS011;51311;50.870;7.048;2022-07-26T11:35:11;3.60;;;1.30;;
31994;SDS011;51311;50.870;7.048;2022-07-26T11:39:12;4.00;;;1.30;;
31994;SDS011;51311;50.870;7.048;2022-07-26T11:43:11;2.20;;;1.30;;
31994;SDS011;51311;50.870;7.048;2022-07-26T11:47:12;1.90;;;1.00;;
31994;SDS011;51311;50.870;7.048;2022-07-26T11:51:13;3.00;;;1.50;;
31994;SDS011;51311;50.870;7.048;2022-07-26T11:55:12;6.40;;;1.50;;
31994;SDS011;51311;50.870;7.048;2022-07-26T11:59:12;3.70;;;1.00;;
31994;SDS011;51311;50.870;7.048;2022-07-26T12:03:12;2.50;;;1.10;;
31994;SDS011;51311;50.870;7.048;2022-07-26T12:07:14;4.80;;;1.40;;
31994;SDS011;51311;50.870;7.048;2022-07-26T12:11:13;3.20;;;1.30;;
31994;SDS011;51311;50.870;7.048;2022-07-26T12:15:13;3.40;;;1.10;;
31994;SDS011;51311;50.870;7.048;2022-07-26T12:23:13;3.70;;;1.40;;
31994;SDS011;51311;50.870;7.048;2022-07-26T12:31:32;2.70;;;1.20;;
31994;SDS011;51311;50.870;7.048;2022-07-26T12:35:14;2.60;;;1.10;;
31994;SDS011;51311;50.870;7.048;2022-07-26T12:43:14;1.80;;;1.10;;
31994;SDS011;51311;50.870;7.048;2022-07-26T12:47:14;2.20;;;1.00;;
31994;SDS011;51311;50.870;7.048;2022-07-26T12:51:14;3.00;;;1.00;;
31994;SDS011;51311;50.870;7.048;2022-07-26T12:55:15;2.10;;;1.10;;
31994;SDS011;51311;50.870;7.048;2022-07-26T12:59:14;4.00;;;1.00;;
31994;SDS011;51311;50.870;7.048;2022-07-26T13:03:15;1.50;;;1.10;;
31994;SDS011;51311;50.870;7.048;2022-07-26T13:07:15;2.40;;;1.00;;
31994;SDS011;51311;50.870;7.048;2022-07-26T13:11:15;1.60;;;1.00;;
31994;SDS011;51311;50.870;7.048;2022-07-26T13:15:15;3.40;;;1.40;;
31994;SDS011;51311;50.870;7.048;2022-07-26T13:19:15;2.90;;;1.10;;
31994;SDS011;51311;50.870;7.048;2022-07-26T13:23:15;2.50;;;1.20;;
31994;SDS011;51311;50.870;7.048;2022-07-26T13:27:15;1.90;;;1.10;;
31994;SDS011;51311;50.870;7.048;2022-07-26T13:31:16;4.50;;;1.20;;
31994;SDS011;51311;50.870;7.048;2022-07-26T13:35:16;3.40;;;1.10;;
31994;SDS011;51311;50.870;7.048;2022-07-26T13:39:16;1.70;;;1.10;;
31994;SDS011;51311;50.870;7.048;2022-07-26T13:43:16;2.30;;;0.90;;
31994;SDS011;51311;50.870;7.048;2022-07-26T13:47:16;11.40;;;1.40;;
31994;SDS011;51311;50.870;7.048;2022-07-26T13:51:16;3.00;;;1.10;;
31994;SDS011;51311;50.870;7.048;2022-07-26T13:55:17;2.10;;;1.00;;
31994;SDS011;51311;50.870;7.048;2022-07-26T13:59:17;2.40;;;1.10;;
31994;SDS011;51311;50.870;7.048;2022-07-26T14:03:17;1.90;;;1.10;;
31994;SDS011;51311;50.870;7.048;2022-07-26T14:07:17;1.90;;;1.10;;
31994;SDS011;51311;50.870;7.048;2022-07-26T14:11:17;3.60;;;1.10;;
31994;SDS011;51311;50.870;7.048;2022-07-26T14:15:17;1.60;;;0.90;;
31994;SDS011;51311;50.870;7.048;2022-07-26T14:19:17;2.70;;;1.10;;
31994;SDS011;51311;50.870;7.048;2022-07-26T14:23:18;2.90;;;1.10;;
31994;SDS011;51311;50.870;7.048;2022-07-26T14:27:18;3.00;;;1.20;;
31994;SDS011;51311;50.870;7.048;2022-07-26T14:31:18;1.90;;;0.90;;
31994;SDS011;51311;50.870;7.048;2022-07-26T14:35:18;1.90;;;1.10;;
31994;SDS011;51311;50.870;7.048;2022-07-26T14:39:18;2.90;;;1.00;;
31994;SDS011;51311;50.870;7.048;2022-07-26T14:43:18;1.60;;;1.00;;
31994;SDS011;51311;50.870;7.048;2022-07-26T14:47:19;2.00;;;1.10;;
31994;SDS011;51311;50.870;7.048;2022-07-26T14:51:19;2.00;;;1.00;;
31994;SDS011;51311;50.870;7.048;2022-07-26T14:55:19;2.00;;;1.20;;
31994;SDS011;51311;50.870;7.048;2022-07-26T14:59:19;3.80;;;1.20;;
31994;SDS011;51311;50.870;7.048;2022-07-26T15:03:19;1.80;;;1.10;;
31994;SDS011;51311;50.870;7.048;2022-07-26T15:07:19;2.10;;;1.10;;
31994;SDS011;51311;50.870;7.048;2022-07-26T15:11:20;1.40;;;0.90;;
31994;SDS011;51311;50.870;7.048;2022-07-26T15:15:20;2.40;;;1.00;;
31994;SDS011;51311;50.870;7.048;2022-07-26T15:19:20;1.30;;;1.00;;
31994;SDS011;51311;50.870;7.048;2022-07-26T15:23:20;3.50;;;1.00;;
31994;SDS011;51311;50.870;7.048;2022-07-26T15:27:20;2.40;;;1.00;;
31994;SDS011;51311;50.870;7.048;2022-07-26T15:31:20;2.60;;;1.10;;
31994;SDS011;51311;50.870;7.048;2022-07-26T15:35:21;1.50;;;0.80;;
31994;SDS011;51311;50.870;7.048;2022-07-26T15:39:21;1.70;;;0.90;;
31994;SDS011;51311;50.870;7.048;2022-07-26T15:43:22;2.90;;;0.90;;
31994;SDS011;51311;50.870;7.048;2022-07-26T15:47:21;1.30;;;0.80;;
31994;SDS011;51311;50.870;7.048;2022-07-26T15:51:21;3.90;;;0.90;;
31994;SDS011;51311;50.870;7.048;2022-07-26T15:55:21;1.40;;;0.80;;
31994;SDS011;51311;50.870;7.048;2022-07-26T15:59:21;1.20;;;0.80;;
31994;SDS011;51311;50.870;7.048;2022-07-26T16:03:22;1.70;;;1.00;;
31994;SDS011;51311;50.870;7.048;2022-07-26T16:07:22;0.80;;;0.60;;
31994;SDS011;51311;50.870;7.048;2022-07-26T16:11:22;1.40;;;0.90;;
31994;SDS011;51311;50.870;7.048;2022-07-26T16:15:22;0.70;;;0.50;;
31994;SDS011;51311;50.870;7.048;2022-07-26T16:19:22;1.40;;;0.60;;
31994;SDS011;51311;50.870;7.048;2022-07-26T16:27:23;1.10;;;0.80;;
31994;SDS011;51311;50.870;7.048;2022-07-26T16:31:23;0.80;;;0.60;;
31994;SDS011;51311;50.870;7.048;2022-07-26T16:35:23;0.80;;;0.50;;
31994;SDS011;51311;50.870;7.048;2022-07-26T16:39:23;0.80;;;0.60;;
31994;SDS011;51311;50.870;7.048;2022-07-26T16:43:23;0.80;;;0.60;;
31994;SDS011;51311;50.870;7.048;2022-07-26T16:47:23;1.00;;;0.60;;
31994;SDS011;51311;50.870;7.048;2022-07-26T16:51:24;1.60;;;0.60;;
31994;SDS011;51311;50.870;7.048;2022-07-26T16:55:24;0.70;;;0.40;;
31994;SDS011;51311;50.870;7.048;2022-07-26T16:59:24;1.00;;;0.60;;
31994;SDS011;51311;50.870;7.048;2022-07-26T17:03:24;0.80;;;0.50;;
31994;SDS011;51311;50.870;7.048;2022-07-26T17:07:24;1.00;;;0.50;;
31994;SDS011;51311;50.870;7.048;2022-07-26T17:11:24;0.60;;;0.40;;
31994;SDS011;51311;50.870;7.048;2022-07-26T17:15:25;0.90;;;0.50;;
31994;SDS011;51311;50.870;7.048;2022-07-26T17:19:25;1.20;;;0.60;;
31994;SDS011;51311;50.870;7.048;2022-07-26T17:23:25;0.90;;;0.60;;
31994;SDS011;51311;50.870;7.048;2022-07-26T17:27:25;0.90;;;0.60;;
31994;SDS011;51311;50.870;7.048;2022-07-26T17:31:25;0.50;;;0.30;;
31994;SDS011;51311;50.870;7.048;2022-07-26T17:35:25;0.50;;;0.40;;
31994;SDS011;51311;50.870;7.048;2022-07-26T17:39:26;0.80;;;0.60;;
31994;SDS011;51311;50.870;7.048;2022-07-26T17:43:26;2.20;;;0.60;;
31994;SDS011;51311;50.870;7.048;2022-07-26T17:47:26;0.80;;;0.50;;
31994;SDS011;51311;50.870;7.048;2022-07-26T17:51:26;0.50;;;0.40;;
31994;SDS011;51311;50.870;7.048;2022-07-26T17:55:26;0.90;;;0.40;;
31994;SDS011;51311;50.870;7.048;2022-07-26T17:59:26;1.60;;;0.50;;
31994;SDS011;51311;50.870;7.048;2022-07-26T18:03:27;1.00;;;0.40;;
31994;SDS011;51311;50.870;7.048;2022-07-26T18:07:27;1.50;;;0.50;;
31994;SDS011;51311;50.870;7.048;2022-07-26T18:11:27;0.70;;;0.40;;
31994;SDS011;51311;50.870;7.048;2022-07-26T18:15:27;0.90;;;0.50;;
31994;SDS011;51311;50.870;7.048;2022-07-26T18:19:27;0.40;;;0.40;;
31994;SDS011;51311;50.870;7.048;2022-07-26T18:23:27;0.80;;;0.40;;
31994;SDS011;51311;50.870;7.048;2022-07-26T18:27:27;0.40;;;0.30;;
31994;SDS011;51311;50.870;7.048;2022-07-26T18:31:28;0.70;;;0.30;;
31994;SDS011;51311;50.870;7.048;2022-07-26T18:35:28;0.30;;;0.30;;
31994;SDS011;51311;50.870;7.048;2022-07-26T18:39:28;0.50;;;0.30;;
31994;SDS011;51311;50.870;7.048;2022-07-26T18:43:28;0.30;;;0.30;;
31994;SDS011;51311;50.870;7.048;2022-07-26T18:47:28;1.30;;;0.40;;
31994;SDS011;51311;50.870;7.048;2022-07-26T18:51:28;0.60;;;0.40;;
31994;SDS011;51311;50.870;7.048;2022-07-26T18:55:29;0.70;;;0.40;;
31994;SDS011;51311;50.870;7.048;2022-07-26T18:59:29;1.20;;;0.50;;
31994;SDS011;51311;50.870;7.048;2022-07-26T19:07:29;0.70;;;0.50;;
31994;SDS011;51311;50.870;7.048;2022-07-26T19:11:29;0.70;;;0.50;;
31994;SDS011;51311;50.870;7.048;2022-07-26T19:15:29;0.20;;;0.20;;
31994;SDS011;51311;50.870;7.048;2022-07-26T19:19:30;0.90;;;0.30;;
31994;SDS011;51311;50.870;7.048;2022-07-26T19:23:30;0.30;;;0.30;;
31994;SDS011;51311;50.870;7.048;2022-07-26T19:27:30;0.60;;;0.30;;
31994;SDS011;51311;50.870;7.048;2022-07-26T19:31:30;0.30;;;0.30;;
31994;SDS011;51311;50.870;7.048;2022-07-26T19:35:30;0.40;;;0.30;;
31994;SDS011;51311;50.870;7.048;2022-07-26T19:39:30;0.80;;;0.30;;
31994;SDS011;51311;50.870;7.048;2022-07-26T19:43:31;0.40;;;0.30;;
31994;SDS011;51311;50.870;7.048;2022-07-26T19:47:31;0.60;;;0.30;;
31994;SDS011;51311;50.870;7.048;2022-07-26T19:51:31;0.30;;;0.30;;
31994;SDS011;51311;50.870;7.048;2022-07-26T19:55:31;0.50;;;0.20;;
31994;SDS011;51311;50.870;7.048;2022-07-26T19:59:31;0.60;;;0.40;;
31994;SDS011;51311;50.870;7.048;2022-07-26T20:03:31;1.00;;;0.40;;
31994;SDS011;51311;50.870;7.048;2022-07-26T20:07:32;0.70;;;0.30;;
31994;SDS011;51311;50.870;7.048;2022-07-26T20:11:32;0.50;;;0.30;;
31994;SDS011;51311;50.870;7.048;2022-07-26T20:15:32;0.50;;;0.20;;
31994;SDS011;51311;50.870;7.048;2022-07-26T20:19:32;0.70;;;0.40;;
31994;SDS011;51311;50.870;7.048;2022-07-26T20:23:32;0.30;;;0.30;;
31994;SDS011;51311;50.870;7.048;2022-07-26T20:27:32;0.20;;;0.20;;
31994;SDS011;51311;50.870;7.048;2022-07-26T20:31:33;0.50;;;0.20;;
31994;SDS011;51311;50.870;7.048;2022-07-26T20:35:33;0.40;;;0.30;;
31994;SDS011;51311;50.870;7.048;2022-07-26T20:39:33;1.40;;;0.40;;
31994;SDS011;51311;50.870;7.048;2022-07-26T20:43:33;0.60;;;0.30;;
31994;SDS011;51311;50.870;7.048;2022-07-26T20:47:33;0.20;;;0.20;;
31994;SDS011;51311;50.870;7.048;2022-07-26T20:51:33;0.60;;;0.40;;
31994;SDS011;51311;50.870;7.048;2022-07-26T20:55:34;0.20;;;0.20;;
31994;SDS011;51311;50.870;7.048;2022-07-26T20:59:34;0.50;;;0.30;;
31994;SDS011;51311;50.870;7.048;2022-07-26T21:03:34;0.50;;;0.30;;
31994;SDS011;51311;50.870;7.048;2022-07-26T21:07:34;0.80;;;0.30;;
31994;SDS011;51311;50.870;7.048;2022-07-26T21:11:34;1.30;;;0.50;;
31994;SDS011;51311;50.870;7.048;2022-07-26T21:15:34;0.30;;;0.20;;
31994;SDS011;51311;50.870;7.048;2022-07-26T21:19:35;0.70;;;0.50;;
31994;SDS011;51311;50.870;7.048;2022-07-26T21:23:35;0.60;;;0.30;;
31994;SDS011;51311;50.870;7.048;2022-07-26T21:27:35;0.40;;;0.30;;
31994;SDS011;51311;50.870;7.048;2022-07-26T21:31:35;0.70;;;0.40;;
31994;SDS011;51311;50.870;7.048;2022-07-26T21:35:35;0.20;;;0.20;;
31994;SDS011;51311;50.870;7.048;2022-07-26T21:39:35;0.40;;;0.40;;
31994;SDS011;51311;50.870;7.048;2022-07-26T21:43:36;0.80;;;0.30;;
31994;SDS011;51311;50.870;7.048;2022-07-26T21:47:36;0.60;;;0.30;;
31994;SDS011;51311;50.870;7.048;2022-07-26T21:51:36;0.70;;;0.20;;
31994;SDS011;51311;50.870;7.048;2022-07-26T21:55:36;0.50;;;0.30;;
31994;SDS011;51311;50.870;7.048;2022-07-26T21:59:36;0.50;;;0.20;;
31994;SDS011;51311;50.870;7.048;2022-07-26T22:03:37;0.20;;;0.20;;
31994;SDS011;51311;50.870;7.048;2022-07-26T22:07:37;1.40;;;0.30;;
31994;SDS011;51311;50.870;7.048;2022-07-26T22:11:37;0.20;;;0.10;;
31994;SDS011;51311;50.870;7.048;2022-07-26T22:15:37;0.20;;;0.20;;
31994;SDS011;51311;50.870;7.048;2022-07-26T22:19:37;0.40;;;0.30;;
31994;SDS011;51311;50.870;7.048;2022-07-26T22:23:37;0.30;;;0.20;;
31994;SDS011;51311;50.870;7.048;2022-07-26T22:27:37;0.30;;;0.30;;
31994;SDS011;51311;50.870;7.048;2022-07-26T22:31:38;0.20;;;0.20;;
31994;SDS011;51311;50.870;7.048;2022-07-26T22:35:38;0.20;;;0.10;;
31994;SDS011;51311;50.870;7.048;2022-07-26T22:39:38;0.20;;;0.20;;
31994;SDS011;51311;50.870;7.048;2022-07-26T22:43:38;0.90;;;0.30;;
31994;SDS011;51311;50.870;7.048;2022-07-26T22:47:39;0.40;;;0.20;;
31994;SDS011;51311;50.870;7.048;2022-07-26T22:51:38;0.20;;;0.10;;
31994;SDS011;51311;50.870;7.048;2022-07-26T22:55:39;0.50;;;0.10;;
31994;SDS011;51311;50.870;7.048;2022-07-26T22:59:39;0.40;;;0.30;;
31994;SDS011;51311;50.870;7.048;2022-07-26T23:03:39;0.80;;;0.30;;
31994;SDS011;51311;50.870;7.048;2022-07-26T23:07:39;0.30;;;0.10;;
31994;SDS011;51311;50.870;7.048;2022-07-26T23:11:39;0.20;;;0.10;;
31994;SDS011;51311;50.870;7.048;2022-07-26T23:15:39;0.30;;;0.30;;
31994;SDS011;51311;50.870;7.048;2022-07-26T23:23:40;0.40;;;0.30;;
31994;SDS011;51311;50.870;7.048;2022-07-26T23:27:40;0.40;;;0.20;;
31994;SDS011;51311;50.870;7.048;2022-07-26T23:31:40;2.10;;;0.30;;
31994;SDS011;51311;50.870;7.048;2022-07-26T23:35:40;0.80;;;0.30;;
31994;SDS011;51311;50.870;7.048;2022-07-26T23:39:40;0.20;;;0.10;;
31994;SDS011;51311;50.870;7.048;2022-07-26T23:43:40;0.10;;;0.10;;
31994;SDS011;51311;50.870;7.048;2022-07-26T23:47:41;0.40;;;0.20;;
31994;SDS011;51311;50.870;7.048;2022-07-26T23:51:41;0.30;;;0.20;;
31994;SDS011;51311;50.870;7.048;2022-07-26T23:55:41;0.60;;;0.30;;
31994;SDS011;51311;50.870;7.048;2022-07-26T23:59:41;0.20;;;0.20;;
